createdAt,value
2023-01-02T00:01:52.177Z,19.52
2023-01-02T00:05:00.882Z,18.70
2023-01-02T00:08:09.232Z,17.52
2023-01-02T00:11:17.995Z,19.07
2023-01-02T00:14:26.204Z,18.83
2023-01-02T00:17:41.208Z,20.50
2023-01-02T00:20:43.566Z,19.17
2023-01-02T00:23:58.282Z,19.12
2023-01-02T00:27:06.176Z,19.60
2023-01-02T00:30:15.610Z,19.33
2023-01-02T00:33:24.217Z,19.60
2023-01-02T00:36:33.012Z,19.20
2023-01-02T00:39:48.212Z,19.80
2023-01-02T00:42:50.069Z,18.80
2023-01-02T00:46:11.307Z,19.53
2023-01-02T00:49:20.723Z,18.27
2023-01-02T00:52:35.304Z,19.27
2023-01-02T00:55:43.212Z,19.70
2023-01-02T00:58:58.272Z,19.70
2023-01-02T01:02:00.316Z,19.53
2023-01-02T01:05:16.477Z,20.90
2023-01-02T01:08:24.939Z,19.50
2023-01-02T01:11:40.270Z,19.12
2023-01-02T01:14:48.235Z,19.27
2023-01-02T01:18:03.258Z,20.43
2023-01-02T01:21:22.249Z,21.20
2023-01-02T01:24:37.358Z,22.05
2023-01-02T01:27:39.256Z,20.73
2023-01-02T01:30:55.249Z,21.23
2023-01-02T01:34:03.224Z,23.57
2023-01-02T01:37:19.257Z,20.02
2023-01-02T01:40:22.278Z,22.37
2023-01-02T01:43:50.329Z,22.67
2023-01-02T01:47:05.250Z,20.83
2023-01-02T01:50:27.593Z,22.00
2023-01-02T01:53:37.226Z,23.50
2023-01-02T01:56:51.147Z,22.17
2023-01-02T02:00:00.268Z,24.35
2023-01-02T02:03:23.333Z,23.73
2023-01-02T02:06:32.260Z,23.37
2023-01-02T02:09:47.323Z,22.92
2023-01-02T02:12:55.288Z,23.15
2023-01-02T02:16:23.672Z,23.17
2023-01-02T02:20:02.281Z,24.37
2023-01-02T02:23:44.857Z,22.43
2023-01-02T02:27:15.368Z,24.05
2023-01-02T02:30:26.245Z,22.98
2023-01-02T02:34:11.244Z,23.33
2023-01-02T02:37:38.290Z,23.83
2023-01-02T02:41:12.285Z,23.47
2023-01-02T02:44:32.174Z,24.52
2023-01-02T02:47:58.257Z,24.70
2023-01-02T02:51:20.315Z,24.33
2023-01-02T02:54:47.252Z,22.47
2023-01-02T02:57:57.377Z,22.57
2023-01-02T03:01:12.202Z,24.80
2023-01-02T03:04:30.322Z,22.92
2023-01-02T03:07:44.371Z,22.00
2023-01-02T03:11:06.376Z,22.77
2023-01-02T03:14:27.265Z,22.77
2023-01-02T03:17:59.301Z,22.85
2023-01-02T03:21:12.571Z,23.75
2023-01-02T03:24:25.335Z,22.37
2023-01-02T03:27:37.898Z,22.40
2023-01-02T03:30:52.517Z,22.07
2023-01-02T03:34:07.484Z,19.40
2023-01-02T03:37:22.330Z,20.23
2023-01-02T03:40:44.335Z,20.65
2023-01-02T03:44:01.305Z,20.77
2023-01-02T03:47:17.636Z,20.83
2023-01-02T03:50:47.301Z,19.30
2023-01-02T03:53:56.332Z,19.10
2023-01-02T03:57:32.333Z,18.33
2023-01-02T04:00:56.540Z,20.13
2023-01-02T04:04:22.345Z,17.47
2023-01-02T04:07:43.325Z,18.37
2023-01-02T04:11:02.328Z,17.37
2023-01-02T04:14:24.386Z,18.92
2023-01-02T04:17:28.636Z,17.97
2023-01-02T04:20:50.372Z,18.13
2023-01-02T04:23:58.164Z,19.10
2023-01-02T04:27:24.370Z,17.77
2023-01-02T04:30:39.358Z,18.23
2023-01-02T04:33:59.351Z,17.90
2023-01-02T04:37:01.220Z,17.83
2023-01-02T04:40:29.346Z,18.35
2023-01-02T04:43:37.995Z,17.67
2023-01-02T04:46:52.333Z,18.77
2023-01-02T04:50:01.365Z,17.07
2023-01-02T04:53:10.096Z,17.70
2023-01-02T04:56:18.360Z,17.25
2023-01-02T04:59:34.337Z,18.62
2023-01-02T05:02:46.453Z,17.73
2023-01-02T05:06:08.430Z,16.13
2023-01-02T05:09:17.368Z,18.53
2023-01-02T05:12:26.565Z,18.00
2023-01-02T05:15:35.386Z,17.17
2023-01-02T05:18:44.053Z,16.52
2023-01-02T05:21:52.411Z,17.07
2023-01-02T05:25:07.389Z,17.47
2023-01-02T05:28:16.051Z,17.30
2023-01-02T05:31:25.412Z,17.48
2023-01-02T05:34:40.365Z,17.20
2023-01-02T05:37:48.968Z,16.77
2023-01-02T05:41:06.412Z,17.20
2023-01-02T05:44:15.020Z,17.40
2023-01-02T05:47:23.393Z,17.85
2023-01-02T05:50:45.409Z,16.70
2023-01-02T05:54:01.416Z,17.07
2023-01-02T05:57:16.380Z,17.03
2023-01-02T06:00:25.158Z,16.30
2023-01-02T06:03:33.430Z,16.52
2023-01-02T06:06:42.101Z,17.50
2023-01-02T06:09:56.464Z,17.10
2023-01-02T06:12:58.426Z,17.20
2023-01-02T06:16:15.452Z,17.00
2023-01-02T06:19:17.488Z,16.90
2023-01-02T06:22:32.382Z,16.90
2023-01-02T06:25:34.493Z,16.73
2023-01-02T06:28:51.433Z,16.73
2023-01-02T06:32:00.488Z,17.25
2023-01-02T06:35:09.364Z,18.55
2023-01-02T06:38:24.509Z,18.23
2023-01-02T06:41:33.392Z,16.83
2023-01-02T06:44:42.146Z,18.13
2023-01-02T06:47:50.427Z,17.37
2023-01-02T06:51:15.448Z,16.17
2023-01-02T06:54:23.420Z,17.45
2023-01-02T06:57:32.020Z,17.17
2023-01-02T07:00:41.497Z,18.83
2023-01-02T07:03:50.313Z,17.58
2023-01-02T07:07:05.392Z,17.42
2023-01-02T07:10:07.844Z,15.93
2023-01-02T07:13:23.441Z,17.67
2023-01-02T07:16:25.503Z,18.37
2023-01-02T07:19:40.493Z,16.80
2023-01-02T07:22:48.468Z,16.15
2023-01-02T07:25:59.238Z,18.77
2023-01-02T07:29:15.473Z,17.53
2023-01-02T07:32:27.493Z,17.33
2023-01-02T07:35:37.237Z,17.37
2023-01-02T07:39:01.482Z,16.62
2023-01-02T07:42:03.952Z,17.85
2023-01-02T07:45:18.453Z,16.50
2023-01-02T07:48:37.483Z,17.00
2023-01-02T07:51:52.881Z,17.52
2023-01-02T07:55:01.484Z,17.00
2023-01-02T07:58:10.401Z,16.45
2023-01-02T08:01:19.699Z,15.93
2023-01-02T08:04:34.514Z,17.33
2023-01-02T08:07:45.160Z,17.60
2023-01-02T08:10:53.624Z,16.33
2023-01-02T08:14:08.485Z,18.40
2023-01-02T08:17:16.477Z,17.20
2023-01-02T08:20:32.461Z,16.83
2023-01-02T08:23:35.103Z,17.62
2023-01-02T08:26:49.534Z,17.25
2023-01-02T08:29:57.523Z,18.62
2023-01-02T08:33:06.750Z,19.23
2023-01-02T08:36:16.484Z,18.73
2023-01-02T08:39:25.255Z,18.95
2023-01-02T08:42:40.632Z,18.35
2023-01-02T08:45:49.256Z,17.23
2023-01-02T08:48:57.533Z,17.40
2023-01-02T08:52:12.812Z,16.63
2023-01-02T08:55:27.483Z,16.67
2023-01-02T08:58:35.502Z,18.08
2023-01-02T09:01:44.502Z,17.60
2023-01-02T09:04:53.533Z,17.37
2023-01-02T09:08:02.885Z,17.70
2023-01-02T09:11:23.518Z,16.67
2023-01-02T09:14:32.540Z,18.27
2023-01-02T09:17:41.169Z,16.12
2023-01-02T09:20:50.528Z,17.70
2023-01-02T09:23:59.480Z,15.60
2023-01-02T09:27:07.503Z,16.23
2023-01-02T09:30:16.550Z,19.67
2023-01-02T09:33:25.588Z,22.67
2023-01-02T09:36:34.228Z,17.53
2023-01-02T09:39:42.525Z,16.47
2023-01-02T09:42:59.497Z,17.52
2023-01-02T09:46:05.294Z,17.75
2023-01-02T09:49:29.497Z,18.17
2023-01-02T09:52:48.542Z,17.33
2023-01-02T09:56:33.733Z,16.97
2023-01-02T10:00:10.715Z,18.67
2023-01-02T10:03:47.759Z,17.92
2023-01-02T10:07:16.535Z,17.50
2023-01-02T10:10:29.040Z,18.07
2023-01-02T10:14:23.991Z,17.10
2023-01-02T10:17:45.580Z,17.62
2023-01-02T10:20:56.082Z,15.48
2023-01-02T10:24:21.570Z,19.70
2023-01-02T10:27:38.004Z,17.83
2023-01-02T10:30:53.651Z,18.60
2023-01-02T10:34:10.581Z,18.05
2023-01-02T10:37:19.092Z,18.15
2023-01-02T10:40:36.659Z,18.58
2023-01-02T10:43:38.527Z,16.87
2023-01-02T10:46:53.551Z,16.57
2023-01-02T10:50:12.624Z,17.48
2023-01-02T10:53:31.009Z,17.37
2023-01-02T10:56:47.593Z,17.55
2023-01-02T11:00:01.564Z,17.23
2023-01-02T11:03:29.555Z,17.43
2023-01-02T11:06:39.942Z,18.08
2023-01-02T11:09:55.542Z,17.50
2023-01-02T11:13:08.591Z,18.60
2023-01-02T11:16:18.511Z,18.87
2023-01-02T11:19:34.829Z,17.93
2023-01-02T11:22:37.625Z,17.75
2023-01-02T11:25:52.561Z,17.58
2023-01-02T11:29:03.661Z,17.15
2023-01-02T11:32:22.599Z,17.80
2023-01-02T11:35:45.672Z,17.77
2023-01-02T11:38:56.165Z,18.33
2023-01-02T11:42:19.584Z,16.48
2023-01-02T11:45:30.003Z,17.90
2023-01-02T11:48:45.614Z,17.13
2023-01-02T11:52:05.150Z,16.30
2023-01-02T11:55:28.596Z,18.08
2023-01-02T11:58:53.618Z,16.58
2023-01-02T12:02:17.464Z,17.17
2023-01-02T12:05:43.632Z,17.97
2023-01-02T12:09:08.448Z,16.27
2023-01-02T12:12:50.547Z,16.50
2023-01-02T12:16:17.680Z,15.88
2023-01-02T12:20:05.641Z,17.50
2023-01-02T12:23:42.117Z,17.60
2023-01-02T12:27:10.627Z,17.07
2023-01-02T12:30:21.114Z,19.35
2023-01-02T12:33:50.623Z,19.00
2023-01-02T12:37:28.605Z,17.60
2023-01-02T12:40:58.619Z,17.57
2023-01-02T12:44:34.106Z,18.37
2023-01-02T12:48:12.003Z,19.55
2023-01-02T12:51:45.733Z,19.15
2023-01-02T12:55:16.451Z,19.92
2023-01-02T12:58:47.755Z,18.73
2023-01-02T13:02:15.822Z,19.67
2023-01-02T13:05:32.328Z,18.42
2023-01-02T13:09:01.613Z,19.58
2023-01-02T13:12:22.646Z,18.23
2023-01-02T13:15:36.371Z,18.50
2023-01-02T13:19:06.674Z,17.77
2023-01-02T13:22:37.931Z,18.87
2023-01-02T13:25:57.676Z,18.65
2023-01-02T13:29:25.636Z,20.45
2023-01-02T13:32:34.412Z,20.07
2023-01-02T13:35:44.644Z,21.10
2023-01-02T13:39:00.699Z,21.08
2023-01-02T13:42:26.605Z,20.42
2023-01-02T13:45:42.658Z,20.67
2023-01-02T13:48:57.014Z,20.03
2023-01-02T13:52:12.714Z,20.00
2023-01-02T13:55:35.700Z,18.70
2023-01-02T13:58:47.244Z,19.10
2023-01-02T14:02:21.894Z,20.33
2023-01-02T14:05:53.736Z,20.90
2023-01-02T14:09:18.792Z,19.77
2023-01-02T14:12:20.920Z,20.35
2023-01-02T14:15:39.693Z,20.37
2023-01-02T14:18:48.766Z,19.80
2023-01-02T14:22:10.328Z,19.97
2023-01-02T14:25:26.659Z,23.53
2023-01-02T14:28:39.050Z,22.08
2023-01-02T14:31:54.714Z,21.00
2023-01-02T14:35:07.267Z,20.77
2023-01-02T14:38:28.687Z,23.20
2023-01-02T14:41:56.706Z,21.30
2023-01-02T14:45:09.287Z,20.58
2023-01-02T14:48:30.671Z,21.20
2023-01-02T14:51:59.833Z,21.17
2023-01-02T14:55:14.752Z,21.40
2023-01-02T14:58:42.678Z,21.33
2023-01-02T15:01:50.811Z,21.42
2023-01-02T15:05:16.749Z,22.17
2023-01-02T15:08:39.715Z,24.45
2023-01-02T15:12:00.698Z,20.97
2023-01-02T15:15:18.683Z,20.07
2023-01-02T15:18:27.207Z,23.35
2023-01-02T15:21:46.768Z,21.30
2023-01-02T15:24:55.782Z,20.85
2023-01-02T15:28:04.741Z,22.60
2023-01-02T15:31:22.750Z,23.10
2023-01-02T15:34:27.150Z,20.25
2023-01-02T15:37:48.734Z,22.05
2023-01-02T15:40:57.654Z,21.48
2023-01-02T15:44:16.740Z,21.83
2023-01-02T15:47:28.586Z,21.77
2023-01-02T15:50:45.745Z,21.80
2023-01-02T15:53:48.452Z,21.20
2023-01-02T15:57:11.749Z,22.25
2023-01-02T16:00:39.742Z,22.17
2023-01-02T16:04:02.307Z,23.17
2023-01-02T16:07:31.697Z,21.17
2023-01-02T16:10:37.140Z,20.37
2023-01-02T16:13:59.724Z,22.42
2023-01-02T16:17:06.032Z,21.57
2023-01-02T16:20:26.748Z,21.23
2023-01-02T16:23:35.757Z,20.88
2023-01-02T16:26:45.423Z,22.10
2023-01-02T16:29:53.833Z,21.83
2023-01-02T16:33:11.744Z,21.13
2023-01-02T16:36:22.968Z,20.47
2023-01-02T16:39:53.250Z,20.95
2023-01-02T16:43:01.386Z,20.87
2023-01-02T16:46:09.887Z,20.55
2023-01-02T16:49:27.767Z,22.45
2023-01-02T16:52:43.791Z,20.75
2023-01-02T16:55:53.237Z,21.05
2023-01-02T16:59:01.843Z,21.03
2023-01-02T17:02:14.133Z,20.25
2023-01-02T17:05:33.832Z,20.65
2023-01-02T17:08:36.018Z,19.92
2023-01-02T17:11:55.841Z,21.02
2023-01-02T17:14:57.802Z,19.63
2023-01-02T17:18:14.740Z,21.12
2023-01-02T17:21:27.746Z,20.55
2023-01-02T17:24:40.847Z,22.27
2023-01-02T17:27:55.804Z,18.98
2023-01-02T17:31:04.636Z,18.67
2023-01-02T17:34:12.791Z,18.42
2023-01-02T17:37:27.762Z,19.15
2023-01-02T17:40:31.186Z,20.48
2023-01-02T17:44:01.880Z,19.23
2023-01-02T17:47:57.719Z,20.40
2023-01-02T17:50:51.494Z,18.65
2023-01-02T17:54:00.876Z,19.50
2023-01-02T17:57:16.800Z,18.83
2023-01-02T18:00:31.856Z,19.40
2023-01-02T18:03:46.792Z,20.23
2023-01-02T18:06:55.542Z,20.55
2023-01-02T18:10:07.975Z,20.62
2023-01-02T18:13:16.368Z,20.37
2023-01-02T18:16:28.787Z,20.33
2023-01-02T18:19:37.565Z,19.70
2023-01-02T18:22:49.966Z,20.37
2023-01-02T18:26:00.387Z,19.67
2023-01-02T18:29:10.849Z,19.12
2023-01-02T18:32:34.869Z,19.73
2023-01-02T18:35:56.806Z,20.07
2023-01-02T18:39:29.829Z,24.33
2023-01-02T18:42:32.261Z,19.90
2023-01-02T18:45:46.860Z,17.90
2023-01-02T18:48:55.903Z,18.80
2023-01-02T18:52:25.781Z,18.87
2023-01-02T18:55:40.275Z,18.15
2023-01-02T18:59:02.261Z,18.00
2023-01-02T19:02:41.032Z,19.58
2023-01-02T19:05:52.653Z,19.42
2023-01-02T19:09:07.843Z,19.70
2023-01-02T19:12:30.794Z,19.67
2023-01-02T19:15:45.837Z,22.50
2023-01-02T19:18:54.969Z,20.37
2023-01-02T19:22:03.887Z,20.95
2023-01-02T19:25:19.728Z,20.73
2023-01-02T19:28:35.844Z,20.83
2023-01-02T19:32:30.849Z,22.40
2023-01-02T19:35:54.227Z,22.67
2023-01-02T19:39:28.887Z,22.30
2023-01-02T19:42:31.769Z,22.63
2023-01-02T19:45:46.925Z,22.05
2023-01-02T19:49:03.086Z,25.92
2023-01-02T19:52:12.869Z,25.10
2023-01-02T19:55:22.126Z,25.12
2023-01-02T19:58:30.850Z,24.07
2023-01-02T20:01:46.170Z,24.50
2023-01-02T20:04:55.083Z,26.98
2023-01-02T20:08:09.839Z,24.95
2023-01-02T20:11:12.129Z,26.17
2023-01-02T20:14:26.867Z,25.60
2023-01-02T20:17:43.905Z,23.38
2023-01-02T20:20:45.938Z,23.15
2023-01-02T20:24:00.846Z,21.40
2023-01-02T20:27:04.111Z,22.25
2023-01-02T20:30:24.242Z,24.33
2023-01-02T20:33:26.727Z,21.30
2023-01-02T20:36:42.958Z,22.02
2023-01-02T20:39:44.909Z,22.58
2023-01-02T20:42:59.928Z,23.52
2023-01-02T20:46:01.917Z,23.30
2023-01-02T20:49:18.084Z,23.65
2023-01-02T20:52:26.861Z,22.98
2023-01-02T20:55:35.664Z,21.92
2023-01-02T20:58:43.917Z,22.75
2023-01-02T21:02:00.031Z,22.87
2023-01-02T21:05:08.789Z,22.05
2023-01-02T21:08:17.956Z,21.10
2023-01-02T21:11:32.918Z,21.85
2023-01-02T21:14:37.751Z,23.12
2023-01-02T21:17:52.906Z,23.43
2023-01-02T21:20:58.767Z,22.67
2023-01-02T21:24:14.883Z,24.52
2023-01-02T21:27:16.763Z,23.40
2023-01-02T21:30:32.917Z,23.60
2023-01-02T21:33:34.777Z,24.80
2023-01-02T21:36:49.968Z,24.77
2023-01-02T21:39:57.915Z,26.17
2023-01-02T21:43:06.769Z,23.92
2023-01-02T21:46:14.976Z,24.73
2023-01-02T21:49:29.909Z,24.83
2023-01-02T21:52:46.020Z,23.38
2023-01-02T21:55:54.541Z,23.77
2023-01-02T21:59:03.004Z,23.00
2023-01-02T22:02:18.124Z,23.58
2023-01-02T22:05:27.875Z,20.67
2023-01-02T22:08:36.599Z,21.73
2023-01-02T22:11:45.960Z,23.50
2023-01-02T22:15:00.934Z,21.67
2023-01-02T22:18:02.870Z,22.50
2023-01-02T22:21:17.960Z,22.10
2023-01-02T22:24:27.949Z,22.80
2023-01-02T22:27:37.370Z,21.10
2023-01-02T22:30:51.958Z,21.40
2023-01-02T22:33:55.787Z,20.83
2023-01-02T22:37:14.519Z,21.03
2023-01-02T22:40:24.994Z,21.73
2023-01-02T22:43:44.023Z,21.35
2023-01-02T22:46:56.169Z,22.90
2023-01-02T22:50:11.829Z,21.45
2023-01-02T22:53:35.980Z,21.93
2023-01-02T22:56:50.937Z,21.15
2023-01-02T22:59:53.381Z,20.02
2023-01-02T23:03:07.904Z,22.13
2023-01-02T23:06:21.893Z,19.87
2023-01-02T23:09:30.711Z,20.93
2023-01-02T23:12:38.962Z,20.40
2023-01-02T23:15:47.813Z,21.33
2023-01-02T23:18:57.410Z,19.02
2023-01-02T23:22:05.741Z,19.08
2023-01-02T23:25:15.006Z,20.50
2023-01-02T23:28:39.784Z,24.10
2023-01-02T23:31:55.065Z,20.70
2023-01-02T23:35:11.004Z,21.25
2023-01-02T23:38:19.101Z,21.62
2023-01-02T23:41:35.061Z,19.77
2023-01-02T23:44:44.004Z,20.20
2023-01-02T23:47:59.046Z,19.17
2023-01-02T23:51:02.977Z,17.80
2023-01-02T23:54:24.980Z,18.33
2023-01-02T23:57:26.955Z,17.93
